Time;durP1;ratioP1;P1;durP2;ratioP2;P2;SDS_P1;SDS_P2;PMS_P1;PMS_P2;Temp;Humidity;BMP_temperature;BMP_pressure;BME280_temperature;BME280_humidity;BME280_pressure;Samples;Min_cycle;Max_cycle;Signal;HPM_P1;HPM_P2
2023/12/29 00:01:22;;;;;;;15.23;6.30;;;;;;;16.44;51.80;100712.47;4966820;28;20102;-42
2023/12/29 00:03:49;;;;;;;13.45;7.57;;;;;;;16.46;51.92;100715.00;4968413;28;20140;-43
2023/12/29 00:06:16;;;;;;;14.77;6.85;;;;;;;16.45;52.38;100714.16;4966718;28;20098;-43
2023/12/29 00:08:42;;;;;;;14.25;6.57;;;;;;;16.45;52.59;100711.47;4967985;28;20047;-42
2023/12/29 00:11:21;;;;;;;13.25;6.30;;;;;;;16.44;52.30;100703.59;4966682;28;20070;-43
2023/12/29 00:13:48;;;;;;;14.43;6.00;;;;;;;16.45;51.52;100705.28;4965971;28;20419;-43
2023/12/29 00:16:15;;;;;;;12.20;5.90;;;;;;;16.44;52.26;100695.56;4966934;28;20360;-43
2023/12/29 00:18:42;;;;;;;12.90;6.60;;;;;;;16.42;51.76;100695.72;4968641;28;20102;-43
2023/12/29 00:21:10;;;;;;;11.75;6.53;;;;;;;16.42;52.44;100695.72;4965418;28;20043;-43
2023/12/29 00:23:36;;;;;;;12.70;6.75;;;;;;;16.41;52.00;100691.34;4970043;28;20074;-43
2023/12/29 00:26:03;;;;;;;10.25;6.10;;;;;;;16.41;52.27;100698.53;4969728;28;20059;-43
2023/12/29 00:28:29;;;;;;;13.60;6.15;;;;;;;16.40;52.08;100692.34;4960473;28;20082;-43
2023/12/29 00:30:56;;;;;;;13.98;6.30;;;;;;;16.41;52.84;100702.06;4962748;28;20177;-43
2023/12/29 00:33:28;;;;;;;10.73;5.15;;;;;;;16.40;52.54;100686.13;4966681;28;20051;-43
2023/12/29 00:35:56;;;;;;;10.45;5.85;;;;;;;16.41;52.09;100687.84;4963771;28;20051;-43
2023/12/29 00:38:22;;;;;;;11.18;5.75;;;;;;;16.41;52.38;100685.16;4966680;28;20043;-43
2023/12/29 00:40:49;;;;;;;12.25;5.40;;;;;;;16.40;52.05;100678.13;4970333;28;20046;-43
2023/12/29 00:43:16;;;;;;;11.82;6.57;;;;;;;16.40;52.44;100664.75;4966558;28;20046;-43
2023/12/29 00:45:44;;;;;;;12.95;6.68;;;;;;;16.40;52.53;100680.78;4966175;28;20051;-43
2023/12/29 00:48:11;;;;;;;10.07;5.57;;;;;;;16.41;52.45;100677.16;4965296;28;20335;-43
2023/12/29 00:50:37;;;;;;;12.38;5.75;;;;;;;16.42;52.49;100673.47;4966790;28;20554;-43
2023/12/29 00:53:04;;;;;;;9.43;5.55;;;;;;;16.42;52.13;100673.47;4969126;28;20053;-43
2023/12/29 00:55:31;;;;;;;12.88;5.72;;;;;;;16.43;52.56;100667.13;4971584;28;20070;-43
2023/12/29 00:57:57;;;;;;;12.25;5.57;;;;;;;16.42;51.83;100671.63;4966812;28;20059;-42
2023/12/29 01:00:24;;;;;;;9.93;5.30;;;;;;;16.42;52.21;100676.16;4967504;28;20138;-43
2023/12/29 01:02:51;;;;;;;10.85;5.32;;;;;;;16.42;52.62;100674.31;4969475;28;20062;-43
2023/12/29 01:05:18;;;;;;;11.48;5.47;;;;;;;16.42;52.42;100674.31;4963401;28;20122;-43
2023/12/29 01:07:44;;;;;;;8.63;5.00;;;;;;;16.43;52.11;100667.13;4967145;28;20051;-43
2023/12/29 01:10:11;;;;;;;8.40;4.45;;;;;;;16.42;51.76;100674.31;4965551;28;20443;-43
2023/12/29 01:12:38;;;;;;;10.57;4.82;;;;;;;16.43;52.32;100657.25;4967838;28;20074;-43
2023/12/29 01:15:05;;;;;;;8.60;4.68;;;;;;;16.43;51.90;100667.97;4964365;28;20133;-43
2023/12/29 01:17:32;;;;;;;12.07;5.65;;;;;;;16.44;52.30;100660.78;4966681;28;20058;-43
2023/12/29 01:19:58;;;;;;;13.57;5.32;;;;;;;16.44;52.14;100679.50;4964289;28;20611;-43
2023/12/29 01:22:25;;;;;;;9.90;4.65;;;;;;;16.44;52.27;100679.50;4964393;28;20050;-44
2023/12/29 01:24:52;;;;;;;9.48;4.78;;;;;;;16.44;51.65;100671.47;4966331;28;20081;-43
2023/12/29 01:27:19;;;;;;;9.60;4.95;;;;;;;16.43;51.89;100670.63;4961365;28;20051;-43
2023/12/29 01:29:45;;;;;;;9.02;4.80;;;;;;;16.43;51.60;100672.47;4968374;28;20142;-44
2023/12/29 01:32:12;;;;;;;9.77;4.65;;;;;;;16.43;51.86;100659.94;4964117;28;20055;-43
2023/12/29 01:34:38;;;;;;;10.13;5.03;;;;;;;16.44;52.91;100660.78;4965706;28;20469;-43
2023/12/29 01:37:05;;;;;;;9.93;5.05;;;;;;;16.42;52.83;100660.94;4962565;28;20424;-43
2023/12/29 01:39:34;;;;;;;11.07;4.70;;;;;;;16.43;52.03;100657.25;4963998;28;20059;-43
2023/12/29 01:42:01;;;;;;;9.32;4.32;;;;;;;16.44;51.64;100668.81;4964067;28;20053;-43
2023/12/29 01:44:27;;;;;;;9.27;4.40;;;;;;;16.43;52.09;100664.44;4963888;28;20097;-43
2023/12/29 01:46:58;;;;;;;10.18;4.15;;;;;;;16.42;52.29;100657.44;4965147;28;20378;-43
2023/12/29 01:49:25;;;;;;;11.10;4.72;;;;;;;16.42;52.11;100660.94;4966909;28;20430;-42
2023/12/29 01:51:59;;;;;;;11.50;4.38;;;;;;;16.41;52.42;100653.06;4964147;28;20054;-43
2023/12/29 01:54:32;;;;;;;10.38;4.65;;;;;;;16.42;52.43;100655.59;4964628;28;20050;-43
2023/12/29 01:57:00;;;;;;;8.38;4.50;;;;;;;16.42;52.26;100646.72;4964320;28;20059;-43
2023/12/29 01:59:28;;;;;;;10.52;4.65;;;;;;;16.42;52.25;100647.56;4962635;28;20435;-43
2023/12/29 02:01:55;;;;;;;8.40;3.95;;;;;;;16.42;51.98;100660.09;4963531;28;20110;-43
2023/12/29 02:04:24;;;;;;;8.48;4.18;;;;;;;16.41;52.67;100667.28;4963847;28;20133;-43
2023/12/29 02:06:51;;;;;;;9.45;3.58;;;;;;;16.41;52.50;100667.28;4963443;28;20306;-43
2023/12/29 02:09:18;;;;;;;10.25;3.95;;;;;;;16.40;52.39;100668.28;4960822;28;20101;-43
2023/12/29 02:11:46;;;;;;;11.25;4.30;;;;;;;16.40;52.39;100670.97;4963921;28;20050;-43
2023/12/29 02:14:15;;;;;;;8.32;3.90;;;;;;;16.39;51.80;100679.94;4966563;28;20145;-43
2023/12/29 02:16:44;;;;;;;7.20;3.83;;;;;;;16.39;52.21;100676.44;4963092;28;20058;-43
2023/12/29 02:19:22;;;;;;;11.18;4.38;;;;;;;16.38;52.84;100682.78;4963102;28;20144;-43
2023/12/29 02:21:49;;;;;;;8.88;3.45;;;;;;;16.38;51.88;100666.72;4963681;28;20057;-43
2023/12/29 02:24:16;;;;;;;7.72;3.55;;;;;;;16.38;53.19;100667.56;4963345;28;20355;-43
2023/12/29 02:26:47;;;;;;;8.35;3.10;;;;;;;16.38;52.76;100669.41;4964893;28;20121;-43
2023/12/29 02:29:17;;;;;;;9.02;3.92;;;;;;;16.37;52.24;100668.56;4961862;28;20137;-44
2023/12/29 02:31:50;;;;;;;10.50;4.15;;;;;;;16.37;52.22;100657.03;4965748;28;20087;-43
2023/12/29 02:34:19;;;;;;;7.55;3.90;;;;;;;16.38;52.85;100672.09;4964035;28;20062;-43
2023/12/29 02:36:47;;;;;;;7.80;3.92;;;;;;;16.37;52.52;100673.91;4965468;28;20512;-43
2023/12/29 02:39:14;;;;;;;9.52;3.53;;;;;;;16.37;51.99;100675.75;4964837;28;20076;-43
2023/12/29 02:41:40;;;;;;;12.13;4.10;;;;;;;16.36;53.24;100674.91;4964581;28;20051;-43
2023/12/29 02:44:07;;;;;;;10.52;3.78;;;;;;;16.35;52.43;100672.38;4964847;28;20127;-43
2023/12/29 02:46:34;;;;;;;8.90;3.47;;;;;;;16.36;52.69;100663.34;4964419;28;20382;-43
2023/12/29 02:49:00;;;;;;;10.65;3.13;;;;;;;16.35;53.31;100667.84;4965890;28;20050;-43
2023/12/29 02:51:27;;;;;;;6.00;3.35;;;;;;;16.33;52.89;100669.84;4961511;28;20043;-43
2023/12/29 02:53:54;;;;;;;8.93;3.80;;;;;;;16.34;53.35;100676.03;4966656;28;20086;-43
2023/12/29 02:56:21;;;;;;;5.88;2.88;;;;;;;16.34;52.92;100676.03;4965163;28;20133;-43
2023/12/29 02:58:48;;;;;;;7.00;3.20;;;;;;;16.32;52.50;100684.19;4970180;28;20047;-43
2023/12/29 03:01:15;;;;;;;7.72;3.42;;;;;;;16.33;52.67;100674.38;4969186;28;20053;-43
2023/12/29 03:03:41;;;;;;;7.40;3.05;;;;;;;16.33;53.16;100682.38;4969685;28;20053;-43
2023/12/29 03:06:08;;;;;;;8.63;3.60;;;;;;;16.33;52.47;100682.38;4965607;28;20107;-43
2023/12/29 03:08:35;;;;;;;7.50;3.03;;;;;;;16.32;53.42;100686.03;4965452;28;20138;-43
2023/12/29 03:11:02;;;;;;;8.73;3.50;;;;;;;16.33;52.34;100687.75;4969492;28;20581;-43
2023/12/29 03:13:28;;;;;;;6.47;3.38;;;;;;;16.32;53.11;100686.03;4965505;28;20058;-43
2023/12/29 03:15:55;;;;;;;10.02;3.85;;;;;;;16.33;52.29;100679.72;4968247;28;20114;-43
2023/12/29 03:18:21;;;;;;;5.25;2.90;;;;;;;16.33;53.42;100682.38;4967167;28;20066;-43
2023/12/29 03:20:48;;;;;;;7.38;3.20;;;;;;;16.32;52.80;100686.03;4969029;28;20046;-43
2023/12/29 03:23:15;;;;;;;6.05;3.35;;;;;;;16.33;52.26;100685.06;4967826;28;20051;-43
2023/12/29 03:25:41;;;;;;;5.80;3.20;;;;;;;16.32;53.15;100678.00;4970923;28;20142;-43
2023/12/29 03:28:08;;;;;;;8.27;3.45;;;;;;;16.33;53.26;100677.03;4967218;28;20053;-44
2023/12/29 03:30:35;;;;;;;9.00;3.67;;;;;;;16.31;53.17;100671.81;4964842;28;20435;-43
2023/12/29 03:33:02;;;;;;;5.93;3.15;;;;;;;16.32;52.93;100680.69;4967442;28;20277;-43
2023/12/29 03:35:32;;;;;;;7.95;3.13;;;;;;;16.31;53.00;100670.97;4966381;28;20059;-43
2023/12/29 03:37:59;;;;;;;7.47;3.00;;;;;;;16.30;52.94;100675.50;4967750;28;20062;-43
2023/12/29 03:40:26;;;;;;;7.55;3.88;;;;;;;16.31;53.49;100677.16;4965269;28;20038;-43
2023/12/29 03:42:52;;;;;;;6.10;3.00;;;;;;;16.30;53.67;100672.81;4968729;28;20063;-43
2023/12/29 03:45:19;;;;;;;7.70;3.33;;;;;;;16.30;53.52;100672.81;4967582;28;20058;-43
2023/12/29 03:47:46;;;;;;;8.20;3.70;;;;;;;16.30;53.81;100664.78;4967602;28;20398;-42
2023/12/29 03:50:12;;;;;;;7.95;3.13;;;;;;;16.31;52.69;100668.31;4967482;28;20122;-43
2023/12/29 03:52:39;;;;;;;10.15;2.72;;;;;;;16.29;53.13;100661.28;4966587;28;20434;-43
2023/12/29 03:55:06;;;;;;;7.22;3.22;;;;;;;16.29;52.61;100658.59;4969043;28;20398;-43
2023/12/29 03:57:32;;;;;;;9.02;3.55;;;;;;;16.28;52.72;100651.56;4966891;28;20134;-43
2023/12/29 03:59:59;;;;;;;7.72;2.90;;;;;;;16.31;52.42;100652.25;4967398;28;20548;-43
2023/12/29 04:02:26;;;;;;;7.60;3.30;;;;;;;16.29;52.41;100641.72;4965719;28;20043;-43
2023/12/29 04:04:52;;;;;;;8.38;2.88;;;;;;;16.27;53.57;100639.16;4963946;28;20106;-43
2023/12/29 04:07:19;;;;;;;6.60;3.05;;;;;;;16.27;52.62;100646.34;4965261;28;20082;-43
2023/12/29 04:09:45;;;;;;;5.85;2.90;;;;;;;16.26;52.60;100645.53;4967681;28;20054;-43
2023/12/29 04:12:12;;;;;;;6.68;3.25;;;;;;;16.27;53.12;100651.72;4964870;28;21046;-43
2023/12/29 04:14:39;;;;;;;7.53;2.90;;;;;;;16.26;53.47;100653.53;4969183;28;20057;-43
2023/12/29 04:17:13;;;;;;;6.20;3.08;;;;;;;16.26;53.65;100648.19;4966869;28;20126;-43
2023/12/29 04:19:41;;;;;;;12.63;3.33;;;;;;;16.26;52.83;100642.84;4967056;28;20157;-42
2023/12/29 04:22:07;;;;;;;6.18;3.08;;;;;;;16.27;53.60;100654.38;4967993;28;20130;-43
2023/12/29 04:24:37;;;;;;;5.75;2.72;;;;;;;16.25;52.96;100629.63;4964139;28;20453;-43
2023/12/29 04:27:04;;;;;;;6.28;3.00;;;;;;;16.25;53.75;100649.19;4963614;28;20054;-44
2023/12/29 04:29:31;;;;;;;6.57;2.72;;;;;;;16.26;52.91;100644.69;4966652;28;20054;-43
2023/12/29 04:31:57;;;;;;;6.85;3.00;;;;;;;16.25;52.69;100643.00;4967699;28;20043;-44
2023/12/29 04:34:24;;;;;;;8.90;3.55;;;;;;;16.25;52.97;100656.38;4966090;28;20051;-44
2023/12/29 04:36:51;;;;;;;8.63;2.92;;;;;;;16.25;53.20;100653.69;4966616;28;20129;-44
2023/12/29 04:39:17;;;;;;;5.18;2.55;;;;;;;16.25;52.96;100654.53;4966305;28;20444;-44
2023/12/29 04:41:44;;;;;;;7.80;3.00;;;;;;;16.25;53.38;100646.50;4967619;28;20125;-44
2023/12/29 04:44:11;;;;;;;7.65;3.08;;;;;;;16.24;53.84;100650.19;4964764;28;20055;-43
2023/12/29 04:46:37;;;;;;;11.15;3.13;;;;;;;16.24;53.90;100647.50;4967021;28;20130;-43
2023/12/29 04:49:04;;;;;;;9.15;3.65;;;;;;;16.26;53.08;100647.34;4966189;28;20129;-43
2023/12/29 04:51:30;;;;;;;8.50;3.20;;;;;;;16.26;52.94;100644.69;4963805;28;20431;-43
2023/12/29 04:53:57;;;;;;;9.73;3.63;;;;;;;16.25;53.90;100641.16;4967223;28;20137;-43
2023/12/29 04:56:24;;;;;;;10.20;3.30;;;;;;;16.26;53.63;100637.50;4962839;28;20462;-43
2023/12/29 04:58:53;;;;;;;6.85;3.05;;;;;;;16.26;53.11;100626.81;4969998;28;20078;-43
2023/12/29 05:01:20;;;;;;;8.98;2.85;;;;;;;16.29;53.18;100641.72;4965532;28;20134;-43
2023/12/29 05:03:46;;;;;;;8.02;3.10;;;;;;;16.36;53.71;100636.59;4963902;28;20074;-43
2023/12/29 05:06:13;;;;;;;9.40;2.75;;;;;;;16.45;53.01;100622.34;4964832;28;20073;-43
2023/12/29 05:08:40;;;;;;;8.18;2.92;;;;;;;16.53;52.90;100625.13;4967188;28;20142;-43
2023/12/29 05:11:07;;;;;;;7.85;3.05;;;;;;;16.59;52.77;100637.91;4968169;28;20154;-43
2023/12/29 05:13:33;;;;;;;10.05;3.00;;;;;;;16.68;53.22;100625.44;4968120;28;20407;-43
2023/12/29 05:16:00;;;;;;;7.90;3.22;;;;;;;16.74;52.69;100635.59;4968307;28;20465;-42
2023/12/29 05:18:29;;;;;;;8.73;2.67;;;;;;;16.82;52.34;100638.38;4965905;28;20050;-43
2023/12/29 05:20:56;;;;;;;10.23;3.28;;;;;;;16.87;52.60;100643.25;4964121;28;20543;-43
2023/12/29 05:23:22;;;;;;;8.32;2.90;;;;;;;16.90;52.50;100641.13;4967379;28;20050;-43
2023/12/29 05:25:49;;;;;;;7.95;2.92;;;;;;;16.94;52.43;100639.84;4965386;28;20105;-43
2023/12/29 05:28:16;;;;;;;11.25;3.10;;;;;;;16.98;52.42;100633.19;4963631;28;20085;-43
2023/12/29 05:30:42;;;;;;;11.63;3.15;;;;;;;17.00;51.88;100635.69;4962726;28;20062;-43
2023/12/29 05:33:09;;;;;;;10.02;3.20;;;;;;;17.04;51.63;100637.06;4965226;28;20058;-43
2023/12/29 05:35:36;;;;;;;9.82;3.72;;;;;;;17.05;51.91;100617.38;4964249;28;20043;-43
2023/12/29 05:38:02;;;;;;;8.73;3.42;;;;;;;17.07;51.95;100636.78;4962410;28;20148;-43
2023/12/29 05:40:29;;;;;;;10.30;3.05;;;;;;;17.08;51.65;100633.09;4964869;28;20047;-43
2023/12/29 05:42:56;;;;;;;8.80;3.00;;;;;;;17.10;51.77;100633.81;4966698;28;20051;-43
2023/12/29 05:45:22;;;;;;;9.25;2.97;;;;;;;17.11;51.50;100634.63;4965647;28;20498;-42
2023/12/29 05:47:49;;;;;;;11.57;3.72;;;;;;;17.11;51.84;100638.16;4963193;28;20050;-43
2023/12/29 05:50:15;;;;;;;10.10;3.03;;;;;;;17.12;51.56;100630.97;4965161;28;20061;-42
2023/12/29 05:52:42;;;;;;;9.48;3.75;;;;;;;17.12;51.41;100630.97;4966967;28;20051;-43
2023/12/29 05:55:09;;;;;;;10.93;3.22;;;;;;;17.12;51.75;100634.47;4964548;28;20436;-43
2023/12/29 05:57:35;;;;;;;9.35;2.78;;;;;;;17.13;51.74;100621.97;4965675;28;20082;-43
2023/12/29 06:00:03;;;;;;;8.38;2.97;;;;;;;17.12;51.44;100623.75;4961773;28;20081;-43
2023/12/29 06:02:29;;;;;;;8.63;3.05;;;;;;;17.12;51.11;100629.13;4967797;28;20054;-43
2023/12/29 06:04:56;;;;;;;9.73;3.22;;;;;;;17.12;51.53;100615.72;4962646;28;20066;-42
2023/12/29 06:07:22;;;;;;;10.73;3.25;;;;;;;17.11;51.24;100622.09;4963777;28;20082;-42
2023/12/29 06:09:49;;;;;;;12.27;3.40;;;;;;;17.11;51.90;100619.41;4965885;28;20066;-42
2023/12/29 06:12:16;;;;;;;9.75;3.13;;;;;;;17.11;51.80;100621.25;4962691;28;20462;-42
2023/12/29 06:14:42;;;;;;;12.43;3.63;;;;;;;17.10;52.01;100616.91;4964177;28;20106;-43
2023/12/29 06:17:09;;;;;;;8.43;2.90;;;;;;;17.10;51.51;100620.41;4965687;28;20102;-43
2023/12/29 06:19:35;;;;;;;8.80;2.97;;;;;;;17.09;51.43;100633.97;4966153;28;20050;-42
2023/12/29 06:22:02;;;;;;;10.88;3.60;;;;;;;17.09;51.64;100616.06;4964653;28;20053;-43
2023/12/29 06:24:29;;;;;;;7.60;2.95;;;;;;;17.09;51.55;100623.25;4965481;28;20223;-42
2023/12/29 06:26:55;;;;;;;9.68;3.03;;;;;;;17.10;51.21;100630.28;4962454;28;20053;-43
2023/12/29 06:29:22;;;;;;;9.95;3.10;;;;;;;17.08;51.86;100621.56;4967033;28;20050;-43
2023/12/29 06:31:49;;;;;;;9.15;3.00;;;;;;;17.03;51.51;100625.53;4962832;28;20133;-43
2023/12/29 06:34:15;;;;;;;12.38;3.58;;;;;;;17.05;51.99;100630.75;4965873;28;20049;-43
2023/12/29 06:36:42;;;;;;;7.40;2.25;;;;;;;17.10;51.22;100619.56;4963498;28;20303;-43
2023/12/29 06:39:09;;;;;;;9.90;2.85;;;;;;;17.15;51.94;100625.31;4966357;28;20046;-43
2023/12/29 06:41:36;;;;;;;11.35;2.40;;;;;;;17.20;51.43;100621.16;4967201;28;20046;-43
2023/12/29 06:44:02;;;;;;;8.23;2.90;;;;;;;17.25;51.53;100624.25;4963642;28;20086;-43
2023/12/29 06:46:29;;;;;;;6.90;2.22;;;;;;;17.31;51.19;100617.41;4963191;28;20454;-42
2023/12/29 06:48:55;;;;;;;6.35;2.45;;;;;;;17.34;50.99;100625.16;4965572;28;20098;-42
2023/12/29 06:51:23;;;;;;;8.32;2.40;;;;;;;17.37;50.93;100630.22;4963614;28;20070;-42
2023/12/29 06:53:50;;;;;;;8.52;2.60;;;;;;;17.36;51.29;100622.31;4964935;28;20137;-42
2023/12/29 06:56:17;;;;;;;5.65;1.98;;;;;;;17.35;51.13;100632.19;4962977;28;20114;-42
2023/12/29 06:58:44;;;;;;;7.65;3.20;;;;;;;17.34;50.89;100629.66;4963133;28;20058;-42
2023/12/29 07:01:11;;;;;;;8.88;3.17;;;;;;;17.33;50.69;100641.38;4960627;28;20135;-43
2023/12/29 07:03:38;;;;;;;7.93;2.50;;;;;;;17.31;51.42;100640.69;4967421;28;20051;-42
2023/12/29 07:06:05;;;;;;;11.35;3.35;;;;;;;17.28;51.46;100639.16;4958703;28;20066;-43
2023/12/29 07:08:32;;;;;;;6.03;2.40;;;;;;;17.25;51.12;100623.41;4961392;28;20055;-42
2023/12/29 07:10:59;;;;;;;7.28;2.28;;;;;;;17.27;50.78;100632.13;4958842;28;20061;-42
2023/12/29 07:13:25;;;;;;;7.57;2.63;;;;;;;17.35;51.38;100623.31;4960447;28;20051;-42
2023/12/29 07:15:52;;;;;;;10.07;2.70;;;;;;;17.41;50.99;100620.88;4960463;28;20134;-42
2023/12/29 07:18:18;;;;;;;6.60;2.40;;;;;;;17.49;50.89;100620.09;4959019;28;20063;-42
2023/12/29 07:20:45;;;;;;;6.50;2.00;;;;;;;17.57;50.67;100628.19;4960400;28;20135;-42
2023/12/29 07:23:12;;;;;;;7.07;2.00;;;;;;;17.67;50.55;100622.72;4958508;28;20087;-42
2023/12/29 07:25:38;;;;;;;5.07;1.83;;;;;;;17.74;50.71;100635.38;4959475;28;20137;-42
2023/12/29 07:28:05;;;;;;;4.85;2.03;;;;;;;17.82;50.58;100633.75;4961518;28;20058;-42
2023/12/29 07:30:32;;;;;;;5.45;2.00;;;;;;;17.91;50.06;100635.47;4963372;28;20231;-43
2023/12/29 07:32:59;;;;;;;7.20;2.15;;;;;;;17.99;49.89;100627.50;4960553;28;20043;-42
2023/12/29 07:35:25;;;;;;;3.17;1.20;;;;;;;18.06;49.85;100628.53;4959302;28;20069;-43
2023/12/29 07:37:52;;;;;;;4.03;1.70;;;;;;;18.12;50.01;100635.94;4960304;28;20054;-44
2023/12/29 07:40:19;;;;;;;6.15;1.75;;;;;;;18.19;49.34;100633.47;4959134;28;20086;-42
2023/12/29 07:42:48;;;;;;;8.60;2.45;;;;;;;18.25;49.34;100638.19;4962347;28;20047;-43
2023/12/29 07:45:15;;;;;;;5.18;2.20;;;;;;;18.31;49.62;100637.56;4964593;28;20262;-43
2023/12/29 07:47:42;;;;;;;6.25;2.42;;;;;;;18.36;49.18;100637.06;4965301;28;20074;-43
2023/12/29 07:50:09;;;;;;;4.18;1.67;;;;;;;18.42;49.42;100636.44;4961919;28;20138;-43
2023/12/29 07:52:35;;;;;;;4.35;1.90;;;;;;;18.46;49.51;100629.75;4962001;28;20433;-42
2023/12/29 07:55:02;;;;;;;7.63;2.50;;;;;;;18.49;49.10;100638.31;4963381;28;20074;-43
2023/12/29 07:57:29;;;;;;;7.43;2.15;;;;;;;18.53;49.64;100636.13;4965405;28;20145;-42
2023/12/29 07:59:56;;;;;;;5.57;2.17;;;;;;;18.55;49.23;100628.75;4965140;28;20117;-43
2023/12/29 08:02:23;;;;;;;6.22;1.80;;;;;;;18.56;49.14;100633.13;4964989;28;20079;-43
2023/12/29 08:04:49;;;;;;;4.55;2.05;;;;;;;18.55;49.16;100628.75;4965993;28;20062;-43
2023/12/29 08:07:16;;;;;;;6.88;2.25;;;;;;;18.53;49.21;100633.44;4966962;28;20047;-42
2023/12/29 08:09:44;;;;;;;7.07;2.42;;;;;;;18.50;49.18;100625.72;4965556;28;20077;-43
2023/12/29 08:12:10;;;;;;;5.75;2.45;;;;;;;18.47;49.38;100639.47;4967942;28;20133;-42
2023/12/29 08:14:37;;;;;;;4.05;1.98;;;;;;;18.43;48.99;100647.00;4966553;28;20054;-43
2023/12/29 08:17:04;;;;;;;4.70;1.83;;;;;;;18.39;49.12;100648.31;4968982;28;20517;-42
2023/12/29 08:19:30;;;;;;;5.82;1.90;;;;;;;18.34;49.87;100634.56;4967327;28;20121;-43
2023/12/29 08:21:57;;;;;;;6.97;2.42;;;;;;;18.29;49.53;100641.38;4966042;28;20466;-43
2023/12/29 08:24:23;;;;;;;4.82;2.35;;;;;;;18.25;49.34;100643.53;4966915;28;20437;-43
2023/12/29 08:26:50;;;;;;;4.15;1.80;;;;;;;18.21;49.69;100643.06;4967996;28;20128;-43
2023/12/29 08:29:18;;;;;;;6.68;2.63;;;;;;;18.17;49.89;100651.56;4969857;28;20320;-43
2023/12/29 08:31:47;;;;;;;7.25;2.60;;;;;;;18.13;49.71;100650.19;4960709;28;20035;-43
2023/12/29 08:34:13;;;;;;;6.25;2.53;;;;;;;18.09;50.07;100659.53;4970370;28;20371;-43
2023/12/29 08:36:40;;;;;;;6.40;2.72;;;;;;;18.04;49.88;100660.03;4964172;28;20387;-42
2023/12/29 08:39:07;;;;;;;5.85;2.53;;;;;;;17.99;50.14;100660.50;4969330;28;20057;-42
2023/12/29 08:41:33;;;;;;;7.40;2.55;;;;;;;17.95;50.21;100659.13;4965458;28;20063;-43
2023/12/29 08:44:00;;;;;;;5.30;2.45;;;;;;;17.93;50.58;100662.97;4968045;28;20058;-42
2023/12/29 08:46:27;;;;;;;6.68;2.78;;;;;;;17.92;50.51;100661.28;4968744;28;20109;-42
2023/12/29 08:48:53;;;;;;;6.85;2.80;;;;;;;17.94;50.40;100662.00;4965281;28;20619;-42
2023/12/29 08:51:20;;;;;;;8.10;3.10;;;;;;;17.99;50.31;100663.19;4969088;28;20050;-42
2023/12/29 08:53:47;;;;;;;7.18;3.10;;;;;;;18.05;49.96;100658.19;4960372;28;20505;-43
2023/12/29 08:56:13;;;;;;;6.07;2.90;;;;;;;18.11;50.04;100657.56;4966391;28;20326;-43
2023/12/29 08:58:41;;;;;;;6.57;3.33;;;;;;;18.18;49.71;100653.25;4968382;28;20102;-42
2023/12/29 09:01:08;;;;;;;7.70;3.88;;;;;;;18.25;49.64;100646.22;4961967;28;20054;-42
2023/12/29 09:03:34;;;;;;;6.72;3.42;;;;;;;18.31;49.96;100648.28;4965274;28;20458;-42
2023/12/29 09:06:02;;;;;;;10.20;4.35;;;;;;;18.37;49.63;100655.72;4964681;28;20062;-43
2023/12/29 09:08:29;;;;;;;5.68;3.05;;;;;;;18.42;49.86;100663.28;4965403;28;20062;-42
2023/12/29 09:10:56;;;;;;;8.63;4.13;;;;;;;18.47;49.35;100659.09;4966196;28;20051;-42
2023/12/29 09:13:25;;;;;;;9.02;4.47;;;;;;;18.52;49.74;100663.97;4967475;28;20066;-42
2023/12/29 09:15:51;;;;;;;8.00;4.10;;;;;;;18.56;49.39;100667.19;4964558;28;20050;-42
2023/12/29 09:18:18;;;;;;;11.93;5.70;;;;;;;18.58;49.43;100671.41;4961364;28;20065;-42
2023/12/29 09:20:45;;;;;;;7.40;3.80;;;;;;;18.59;49.27;100661.50;4963911;28;20066;-42
2023/12/29 09:23:12;;;;;;;9.68;5.40;;;;;;;18.58;49.51;100682.13;4962121;28;21643;-42
2023/12/29 09:25:39;;;;;;;12.38;5.30;;;;;;;18.58;49.47;100678.59;4966844;28;20054;-42
2023/12/29 09:28:06;;;;;;;9.48;5.00;;;;;;;18.55;49.64;100682.44;4964734;28;20050;-42
2023/12/29 09:30:33;;;;;;;8.70;4.72;;;;;;;18.53;49.62;100667.50;4959746;28;20081;-42
2023/12/29 09:33:00;;;;;;;10.40;5.28;;;;;;;18.49;49.58;100677.72;4964068;28;20126;-42
2023/12/29 09:35:26;;;;;;;13.75;5.38;;;;;;;18.46;49.80;100680.72;4964790;28;20088;-42
2023/12/29 09:37:53;;;;;;;11.48;5.32;;;;;;;18.42;49.38;100677.53;4965979;28;20047;-42
2023/12/29 09:40:20;;;;;;;8.90;4.85;;;;;;;18.39;49.33;100672.47;4963221;28;20047;-43
2023/12/29 09:42:48;;;;;;;11.05;5.45;;;;;;;18.36;49.92;100688.88;4965359;28;20345;-42
2023/12/29 09:45:22;;;;;;;10.55;5.07;;;;;;;18.33;49.65;100686.53;4962652;28;20362;-42
2023/12/29 09:47:52;;;;;;;9.40;5.32;;;;;;;18.32;50.19;100689.38;4964657;28;20133;-43
2023/12/29 09:50:21;;;;;;;9.05;5.07;;;;;;;18.29;50.03;100684.31;4964562;28;20103;-43
2023/12/29 09:52:52;;;;;;;10.82;5.40;;;;;;;18.24;49.53;100687.47;4966362;28;20043;-42
2023/12/29 09:55:19;;;;;;;9.55;4.88;;;;;;;18.22;50.22;100684.13;4962193;28;20055;-43
2023/12/29 09:57:47;;;;;;;12.65;5.38;;;;;;;18.18;49.83;100680.09;4962000;28;20431;-43
2023/12/29 10:00:16;;;;;;;9.68;4.97;;;;;;;18.14;50.14;100684.91;4967997;28;20056;-43
2023/12/29 10:02:44;;;;;;;8.40;4.57;;;;;;;18.11;50.29;100685.22;4959745;28;20099;-42
2023/12/29 10:05:10;;;;;;;11.02;5.80;;;;;;;18.11;50.92;100690.59;4967647;28;20050;-42
2023/12/29 10:07:38;;;;;;;9.07;4.65;;;;;;;18.12;50.68;100699.47;4961041;28;20057;-43
2023/12/29 10:10:06;;;;;;;8.43;4.80;;;;;;;18.11;50.45;100693.28;4969782;28;20570;-43
2023/12/29 10:12:36;;;;;;;8.45;4.82;;;;;;;18.12;50.52;100702.16;4963869;28;20094;-42
2023/12/29 10:15:15;;;;;;;8.38;4.70;;;;;;;18.10;50.65;100705.00;4970060;28;20082;-42
2023/12/29 10:17:57;;;;;;;11.80;5.43;;;;;;;18.11;50.37;100690.59;4962468;28;20105;-42
2023/12/29 10:20:46;;;;;;;10.00;4.80;;;;;;;18.09;50.07;100687.25;4965645;28;20047;-44
2023/12/29 10:23:18;;;;;;;8.82;4.60;;;;;;;18.12;50.59;100684.22;4965844;28;20407;-44
2023/12/29 10:25:46;;;;;;;8.77;4.82;;;;;;;18.16;49.93;100674.84;4966695;28;20141;-44
2023/12/29 10:28:13;;;;;;;9.32;5.20;;;;;;;18.20;50.29;100689.63;4961871;28;20047;-44
2023/12/29 10:30:40;;;;;;;10.23;5.38;;;;;;;18.23;50.48;100692.00;4961122;28;20133;-43
2023/12/29 10:33:08;;;;;;;10.50;5.10;;;;;;;18.29;49.94;100697.72;4968094;28;20043;-44
2023/12/29 10:35:37;;;;;;;8.07;4.63;;;;;;;18.33;49.84;100696.41;4961646;28;20069;-43
2023/12/29 10:38:11;;;;;;;8.73;4.78;;;;;;;18.36;50.07;100715.72;4960707;28;20062;-44
2023/12/29 10:40:38;;;;;;;11.82;6.25;;;;;;;18.38;49.97;100726.31;4965652;28;20077;-43
2023/12/29 10:43:07;;;;;;;11.25;5.63;;;;;;;18.39;50.06;100725.31;4963593;28;20055;-44
2023/12/29 10:45:34;;;;;;;10.73;5.38;;;;;;;18.40;49.68;100727.81;4961752;28;20053;-43
2023/12/29 10:48:01;;;;;;;10.65;5.28;;;;;;;18.38;49.83;100720.94;4968290;28;20358;-44
2023/12/29 10:50:28;;;;;;;8.27;5.15;;;;;;;18.37;49.67;100724.59;4966320;28;20051;-43
2023/12/29 10:53:12;;;;;;;10.57;5.10;;;;;;;18.33;49.94;100721.44;4966384;28;20047;-43
2023/12/29 10:55:39;;;;;;;9.15;5.13;;;;;;;18.33;49.69;100724.09;4966379;28;20069;-44
2023/12/29 10:58:06;;;;;;;11.40;5.45;;;;;;;18.32;49.98;100727.78;4963588;28;20372;-43
2023/12/29 11:00:32;;;;;;;11.27;5.28;;;;;;;18.33;49.96;100731.28;4969092;28;20142;-43
2023/12/29 11:03:00;;;;;;;10.88;5.72;;;;;;;18.35;50.11;100729.31;4966014;28;20383;-43
2023/12/29 11:05:28;;;;;;;12.02;5.55;;;;;;;18.40;49.96;100718.94;4961794;28;20066;-43
2023/12/29 11:07:55;;;;;;;11.13;6.03;;;;;;;18.45;49.96;100719.28;4961737;28;20051;-42
2023/12/29 11:10:22;;;;;;;10.15;5.70;;;;;;;18.48;49.89;100722.50;4966674;28;20054;-43
2023/12/29 11:12:49;;;;;;;11.50;6.07;;;;;;;18.51;50.18;100715.97;4962358;28;20043;-43
2023/12/29 11:15:16;;;;;;;11.40;6.50;;;;;;;18.53;50.04;100732.75;4964725;28;20403;-43
2023/12/29 11:17:49;;;;;;;11.98;6.32;;;;;;;18.53;49.73;100731.91;4970693;28;20340;-44
2023/12/29 11:20:16;;;;;;;12.07;7.07;;;;;;;18.54;50.02;100738.97;4966985;28;20065;-42
2023/12/29 11:22:46;;;;;;;12.88;6.15;;;;;;;18.53;50.04;100732.75;4961648;28;20055;-43